Terminal Aerodrome Forecast
Issued by NWS Pittsburgh, PA

Current Version | Previous Version | Graphics & Text | Print | Product List | Glossary On
Versions: 1 2 3 4 5 6 7 8 9 10 11 12 13 14 15 16 17 18 19 20 21 22 23 24 25 26 27 28 29 30 31 32 33 34 35 36 37
133
FTUS41 KPBZ 161008 AAC
TAFPIT
TAF AMD
KPIT 161008Z 1610/1712 VRB05KT 6SM -RA OVC025
     FM161100 VRB05KT 6SM -RA OVC015
     FM161600 31012G25KT 6SM -RA OVC010
     FM162000 33013G23KT P6SM BKN035
     FM170000 33012KT P6SM BKN035=

USA.gov is the U.S. government's official web portal to all federal, state and local government web resources and services.